Sao Joao da Mata, Brazil
Current Conditions -  °F | °C
As of 9:00 AM on Wednesday 26 Nov 2014 (Local Time) from SBGW Reporting Station
Light Rain Light Rain  
Wind Chill: 73°   Ceiling: 4800
Heat Index: 73°   Visibility: 4mi
Dew Point: 68°   Wind: 5mph
Humidity: 83%   Direction: 80°E
Pressure: 29.85"   Gusts: NA
Location:  21.93°S, 45.93°W
Report Text: SBGW 261100Z 08004KT 050V140 6000 -RA SCT020 BKN048 23/20 Q1011
Loading
Personal Weather Stations






























Interactive Weather Map New forecast layout! Learn more

10-Day Weather Forecast

Advertisements
Track Severe Weather on mobile